createdAt,value
2023-05-08T00:01:33.246Z,14.90
2023-05-08T00:04:00.173Z,14.80
2023-05-08T00:06:30.967Z,14.80
2023-05-08T00:08:57.808Z,14.80
2023-05-08T00:11:25.195Z,14.70
2023-05-08T00:13:52.108Z,14.70
2023-05-08T00:16:19.322Z,14.70
2023-05-08T00:18:47.198Z,14.70
2023-05-08T00:21:14.545Z,14.70
2023-05-08T00:23:41.778Z,14.70
2023-05-08T00:26:08.884Z,14.70
2023-05-08T00:28:35.924Z,14.70
2023-05-08T00:31:02.644Z,14.60
2023-05-08T00:33:29.953Z,14.60
2023-05-08T00:36:03.499Z,14.70
2023-05-08T00:38:32.083Z,14.70
2023-05-08T00:40:59.117Z,14.70
2023-05-08T00:43:28.392Z,14.80
2023-05-08T00:45:56.179Z,14.70
2023-05-08T00:48:23.788Z,14.80
2023-05-08T00:50:51.801Z,14.70
2023-05-08T00:53:19.225Z,14.80
2023-05-08T00:55:46.373Z,14.70
2023-05-08T00:58:13.876Z,14.60
2023-05-08T01:00:41.795Z,14.50
2023-05-08T01:03:09.509Z,14.50
2023-05-08T01:05:37.156Z,14.50
2023-05-08T01:08:03.948Z,14.50
2023-05-08T01:11:14.172Z,14.40
2023-05-08T01:13:49.394Z,14.50
2023-05-08T01:16:17.876Z,14.50
2023-05-08T01:19:15.852Z,14.50
2023-05-08T01:21:54.783Z,14.50
2023-05-08T01:25:00.938Z,14.40
2023-05-08T01:27:37.174Z,14.30
2023-05-08T01:30:15.987Z,14.30
2023-05-08T01:32:46.032Z,14.30
2023-05-08T01:35:31.342Z,14.30
2023-05-08T01:38:07.026Z,14.30
2023-05-08T01:40:48.946Z,14.30
2023-05-08T01:43:33.488Z,14.40
2023-05-08T01:46:02.023Z,14.30
2023-05-08T01:48:39.535Z,14.30
2023-05-08T01:51:08.934Z,14.40
2023-05-08T01:53:43.835Z,14.40
2023-05-08T01:56:15.629Z,14.40
2023-05-08T01:58:43.079Z,14.40
2023-05-08T02:01:11.440Z,14.40
2023-05-08T02:03:38.932Z,14.40
2023-05-08T02:06:06.678Z,14.40
2023-05-08T02:08:33.873Z,14.40
2023-05-08T02:11:00.953Z,14.40
2023-05-08T02:13:27.841Z,14.50
2023-05-08T02:15:55.020Z,14.50
2023-05-08T02:18:22.281Z,14.40
2023-05-08T02:20:50.649Z,14.50
2023-05-08T02:23:21.282Z,14.50
2023-05-08T02:25:48.751Z,14.50
2023-05-08T02:28:16.084Z,14.50
2023-05-08T02:30:43.961Z,14.50
2023-05-08T02:33:10.860Z,14.50
2023-05-08T02:35:38.852Z,14.50
2023-05-08T02:38:10.597Z,14.50
2023-05-08T02:40:39.961Z,14.50
2023-05-08T02:43:07.623Z,14.50
2023-05-08T02:45:42.388Z,14.50
2023-05-08T02:48:12.130Z,14.50
2023-05-08T02:50:51.839Z,14.40
2023-05-08T02:53:30.489Z,14.40
2023-05-08T02:55:59.194Z,14.40
2023-05-08T02:58:31.738Z,14.40
2023-05-08T03:01:08.154Z,14.40
2023-05-08T03:03:42.693Z,14.40
2023-05-08T03:06:14.635Z,14.40
2023-05-08T03:08:42.751Z,14.40
2023-05-08T03:11:12.451Z,14.40
2023-05-08T03:13:40.047Z,14.40
2023-05-08T03:16:08.740Z,14.40
2023-05-08T03:18:37.550Z,14.40
2023-05-08T03:21:06.653Z,14.40
2023-05-08T03:23:33.961Z,14.30
2023-05-08T03:26:01.262Z,14.30
2023-05-08T03:28:28.527Z,14.20
2023-05-08T03:30:58.662Z,14.20
2023-05-08T03:33:26.146Z,14.20
2023-05-08T03:35:53.586Z,14.20
2023-05-08T03:38:22.271Z,14.10
2023-05-08T03:40:49.540Z,14.10
2023-05-08T03:43:16.917Z,14.10
2023-05-08T03:45:44.444Z,14.10
2023-05-08T03:48:11.371Z,14.00
2023-05-08T03:50:38.892Z,14.00
2023-05-08T03:53:09.269Z,14.00
2023-05-08T03:55:38.012Z,13.90
2023-05-08T03:58:27.071Z,14.00
2023-05-08T04:01:16.175Z,14.00
2023-05-08T04:03:51.262Z,14.00
2023-05-08T04:06:28.702Z,13.90
2023-05-08T04:09:07.000Z,13.90
2023-05-08T04:11:59.050Z,14.00
2023-05-08T04:14:27.941Z,14.00
2023-05-08T04:17:00.608Z,14.10
2023-05-08T04:19:29.762Z,14.00
2023-05-08T04:21:59.855Z,14.10
2023-05-08T04:24:28.382Z,14.20
2023-05-08T04:26:55.501Z,14.10
2023-05-08T04:29:23.022Z,14.10
2023-05-08T04:31:51.196Z,14.10
2023-05-08T04:34:22.015Z,14.10
2023-05-08T04:36:50.398Z,14.10
2023-05-08T04:39:18.199Z,14.10
2023-05-08T04:41:45.321Z,14.20
2023-05-08T04:44:13.415Z,14.30
2023-05-08T04:46:40.614Z,14.20
2023-05-08T04:49:09.245Z,14.20
2023-05-08T04:51:36.383Z,14.20
2023-05-08T04:54:03.569Z,14.20
2023-05-08T04:56:31.581Z,14.20
2023-05-08T04:58:58.906Z,14.20
2023-05-08T05:01:25.764Z,14.20
2023-05-08T05:03:52.775Z,14.20
2023-05-08T05:06:21.147Z,14.20
2023-05-08T05:08:48.602Z,14.20
2023-05-08T05:11:15.715Z,14.30
2023-05-08T05:13:43.212Z,14.40
2023-05-08T05:16:10.670Z,14.40
2023-05-08T05:18:37.706Z,14.40
2023-05-08T05:21:05.658Z,14.40
2023-05-08T05:23:33.715Z,14.40
2023-05-08T05:26:02.452Z,14.40
2023-05-08T05:28:30.676Z,14.40
2023-05-08T05:30:57.890Z,14.50
2023-05-08T05:33:24.733Z,14.50
2023-05-08T05:35:51.733Z,14.50
2023-05-08T05:38:18.550Z,14.50
2023-05-08T05:40:45.725Z,14.60
2023-05-08T05:43:13.197Z,14.60
2023-05-08T05:45:40.128Z,14.70
2023-05-08T05:48:07.213Z,14.80
2023-05-08T05:50:34.735Z,14.80
2023-05-08T05:53:03.298Z,14.80
2023-05-08T05:55:30.407Z,14.80
2023-05-08T05:57:58.449Z,14.90
2023-05-08T06:00:25.779Z,14.90
2023-05-08T06:02:55.875Z,14.90
2023-05-08T06:05:23.392Z,15.00
2023-05-08T06:07:51.692Z,15.00
2023-05-08T06:10:20.031Z,15.10
2023-05-08T06:12:46.883Z,15.20
2023-05-08T06:15:15.420Z,15.30
2023-05-08T06:17:45.236Z,15.40
2023-05-08T06:20:13.079Z,15.40
2023-05-08T06:22:41.594Z,15.50
2023-05-08T06:25:09.577Z,15.60
2023-05-08T06:27:36.588Z,15.70
2023-05-08T06:30:04.685Z,15.80
2023-05-08T06:32:31.680Z,15.80
2023-05-08T06:34:58.677Z,15.90
2023-05-08T06:37:25.588Z,16.10
2023-05-08T06:40:00.545Z,16.10
2023-05-08T06:42:37.775Z,16.20
2023-05-08T06:45:04.891Z,16.20
2023-05-08T06:47:31.615Z,16.10
2023-05-08T06:49:58.597Z,16.10
2023-05-08T06:52:25.807Z,16.10
2023-05-08T06:54:52.762Z,16.20
2023-05-08T06:57:19.781Z,16.30
2023-05-08T06:59:46.771Z,16.30
2023-05-08T07:02:14.221Z,16.50
2023-05-08T07:04:41.569Z,16.50
2023-05-08T07:07:08.878Z,16.60
2023-05-08T07:09:36.436Z,16.70
2023-05-08T07:12:04.003Z,17.00
2023-05-08T07:14:30.947Z,17.10
2023-05-08T07:16:58.899Z,17.40
2023-05-08T07:19:26.207Z,17.20
2023-05-08T07:21:53.189Z,17.20
2023-05-08T07:24:20.787Z,17.20
2023-05-08T07:26:48.002Z,17.20
2023-05-08T07:29:15.514Z,17.30
2023-05-08T07:31:42.412Z,17.30
2023-05-08T07:34:09.485Z,17.30
2023-05-08T07:36:36.228Z,17.40
2023-05-08T07:41:50.624Z,17.30
2023-05-08T07:44:17.892Z,17.30
2023-05-08T07:46:44.656Z,17.30
2023-05-08T07:49:11.380Z,17.20
2023-05-08T07:51:39.494Z,17.20
2023-05-08T07:54:06.625Z,17.20
2023-05-08T07:56:33.970Z,17.10
2023-05-08T07:59:00.741Z,17.10
2023-05-08T08:01:29.529Z,17.10
2023-05-08T08:03:56.468Z,17.10
2023-05-08T08:06:23.746Z,17.10
2023-05-08T08:08:50.591Z,17.10
2023-05-08T08:11:17.750Z,17.10
2023-05-08T08:13:44.865Z,17.20
2023-05-08T08:16:11.928Z,17.20
2023-05-08T08:18:39.353Z,17.20
2023-05-08T08:21:07.418Z,17.30
2023-05-08T08:23:34.397Z,17.40
2023-05-08T08:26:02.551Z,17.50
2023-05-08T08:28:29.618Z,17.40
2023-05-08T08:30:56.631Z,17.50
2023-05-08T08:33:23.514Z,17.50
2023-05-08T08:35:50.990Z,17.50
2023-05-08T08:38:18.310Z,17.50
2023-05-08T08:40:45.503Z,17.50
2023-05-08T08:43:12.552Z,17.50
2023-05-08T08:45:39.414Z,17.60
2023-05-08T08:48:10.202Z,17.60
2023-05-08T08:50:37.555Z,17.70
2023-05-08T08:53:25.598Z,17.70
2023-05-08T08:55:53.970Z,17.80
2023-05-08T08:58:38.974Z,17.80
2023-05-08T09:01:06.161Z,17.80
2023-05-08T09:03:33.780Z,17.80
2023-05-08T09:06:01.463Z,17.80
2023-05-08T09:08:28.654Z,17.80
2023-05-08T09:10:59.592Z,17.80
2023-05-08T09:13:26.702Z,17.80
2023-05-08T09:15:53.617Z,17.80
2023-05-08T09:18:20.589Z,17.70
2023-05-08T09:20:47.422Z,17.70
2023-05-08T09:23:17.361Z,17.80
2023-05-08T09:25:45.930Z,17.90
2023-05-08T09:28:20.190Z,17.90
2023-05-08T09:30:54.114Z,17.90
2023-05-08T09:33:21.766Z,18.00
2023-05-08T09:35:49.101Z,18.00
2023-05-08T09:38:38.108Z,18.00
2023-05-08T09:41:08.775Z,18.10
2023-05-08T09:43:36.093Z,18.00
2023-05-08T09:46:23.918Z,18.10
2023-05-08T09:48:51.749Z,18.10
2023-05-08T09:51:18.929Z,18.00
2023-05-08T09:53:46.357Z,18.10
2023-05-08T09:56:14.469Z,18.10
2023-05-08T09:58:44.970Z,18.10
2023-05-08T10:01:29.178Z,18.00
2023-05-08T10:03:56.082Z,17.90
2023-05-08T10:06:23.682Z,17.90
2023-05-08T10:09:06.242Z,17.90
2023-05-08T10:11:33.167Z,18.10
2023-05-08T10:13:59.935Z,18.30
2023-05-08T10:16:26.891Z,18.40
2023-05-08T10:18:57.053Z,18.50
2023-05-08T10:21:24.169Z,18.50
2023-05-08T10:23:51.466Z,18.80
2023-05-08T10:26:27.603Z,19.10
2023-05-08T10:28:59.002Z,19.40
2023-05-08T10:31:26.350Z,19.10
2023-05-08T10:33:55.835Z,19.10
2023-05-08T10:36:24.075Z,19.30
2023-05-08T10:38:51.193Z,19.30
2023-05-08T10:41:22.098Z,19.60
2023-05-08T10:43:49.054Z,20.30
2023-05-08T10:46:36.944Z,20.80
2023-05-08T10:49:16.110Z,21.30
2023-05-08T10:52:08.728Z,22.00
2023-05-08T10:54:47.947Z,22.20
2023-05-08T10:57:14.718Z,22.10
2023-05-08T10:59:48.550Z,22.40
2023-05-08T11:02:17.169Z,22.30
2023-05-08T11:04:45.519Z,21.70
2023-05-08T11:07:12.732Z,21.30
2023-05-08T11:09:43.236Z,21.10
2023-05-08T11:12:29.463Z,21.00
2023-05-08T11:15:06.429Z,20.70
2023-05-08T11:17:33.466Z,20.30
2023-05-08T11:20:01.797Z,20.30
2023-05-08T11:22:30.736Z,20.30
2023-05-08T11:25:10.661Z,20.10
2023-05-08T11:28:06.906Z,20.10
2023-05-08T11:30:35.143Z,20.00
2023-05-08T11:33:05.673Z,19.80
2023-05-08T11:35:42.360Z,19.80
2023-05-08T11:38:28.326Z,19.70
2023-05-08T11:41:07.840Z,19.70
2023-05-08T11:43:37.696Z,19.70
2023-05-08T11:46:13.804Z,19.80
2023-05-08T11:48:41.255Z,19.80
2023-05-08T11:51:08.305Z,19.70
2023-05-08T11:53:36.388Z,19.60
2023-05-08T11:56:04.215Z,19.60
2023-05-08T11:58:31.443Z,19.70
2023-05-08T12:00:58.535Z,19.80
2023-05-08T12:03:26.177Z,19.90
2023-05-08T12:05:57.566Z,20.00
2023-05-08T12:08:24.635Z,19.90
2023-05-08T12:10:58.941Z,20.20
2023-05-08T12:13:29.140Z,20.40
2023-05-08T12:15:57.774Z,20.40
2023-05-08T12:18:26.528Z,20.50
2023-05-08T12:20:53.955Z,20.40
2023-05-08T12:23:21.409Z,20.40
2023-05-08T12:25:48.176Z,20.30
2023-05-08T12:28:15.181Z,20.40
2023-05-08T12:30:42.620Z,20.30
2023-05-08T12:33:09.592Z,20.30
2023-05-08T12:35:37.075Z,20.30
2023-05-08T12:38:04.258Z,20.20
2023-05-08T12:40:33.136Z,20.20
2023-05-08T12:43:03.803Z,20.20
2023-05-08T12:45:33.842Z,20.10
2023-05-08T12:48:05.005Z,20.00
2023-05-08T12:50:39.111Z,19.90
2023-05-08T12:53:16.349Z,19.60
2023-05-08T12:55:55.183Z,19.50
2023-05-08T12:58:29.704Z,19.20
2023-05-08T13:01:10.213Z,19.00
2023-05-08T13:03:37.875Z,18.70
2023-05-08T13:06:05.514Z,18.60
2023-05-08T13:08:36.963Z,18.50
2023-05-08T13:11:05.664Z,18.40
2023-05-08T13:13:33.934Z,18.30
2023-05-08T13:16:06.031Z,18.20
2023-05-08T13:18:33.264Z,18.20
2023-05-08T13:21:02.340Z,18.10
2023-05-08T13:23:29.421Z,18.10
2023-05-08T13:25:56.514Z,18.20
2023-05-08T13:28:23.286Z,18.10
2023-05-08T13:30:50.316Z,18.20
2023-05-08T13:33:17.263Z,18.20
2023-05-08T13:35:44.476Z,18.20
2023-05-08T13:38:12.203Z,18.30
2023-05-08T13:40:39.697Z,18.30
2023-05-08T13:43:06.535Z,18.30
2023-05-08T13:45:33.568Z,18.40
2023-05-08T13:48:00.550Z,18.50
2023-05-08T13:50:27.379Z,18.50
2023-05-08T13:52:55.314Z,18.50
2023-05-08T13:55:23.558Z,18.50
2023-05-08T13:57:50.701Z,18.60
2023-05-08T14:00:18.152Z,18.60
2023-05-08T14:02:45.790Z,18.60
2023-05-08T14:05:13.202Z,18.70
2023-05-08T14:07:40.607Z,18.70
2023-05-08T14:10:08.223Z,18.80
2023-05-08T14:12:37.094Z,18.90
2023-05-08T14:15:04.954Z,18.90
2023-05-08T14:17:31.836Z,18.90
2023-05-08T14:19:59.459Z,19.00
2023-05-08T14:22:26.557Z,19.10
2023-05-08T14:24:53.854Z,19.10
2023-05-08T14:27:20.802Z,19.20
2023-05-08T14:29:48.138Z,19.20
2023-05-08T14:32:15.509Z,19.30
2023-05-08T14:34:42.759Z,19.20
2023-05-08T14:37:09.775Z,19.40
2023-05-08T14:39:37.106Z,19.40
2023-05-08T14:44:34.553Z,19.60
2023-05-08T14:47:01.670Z,19.60
2023-05-08T14:49:37.377Z,19.60
2023-05-08T14:52:06.074Z,19.60
2023-05-08T14:54:33.186Z,19.60
2023-05-08T14:57:03.417Z,19.70
2023-05-08T14:59:30.752Z,19.70
2023-05-08T15:01:57.858Z,19.70
2023-05-08T15:04:25.090Z,19.70
2023-05-08T15:06:51.949Z,19.80
2023-05-08T15:09:19.144Z,19.80
2023-05-08T15:11:46.166Z,19.80
2023-05-08T15:14:13.105Z,19.90
2023-05-08T15:16:40.700Z,19.90
2023-05-08T15:19:09.761Z,19.90
2023-05-08T15:21:36.857Z,19.90
2023-05-08T15:24:03.913Z,19.90
2023-05-08T15:26:31.061Z,19.90
2023-05-08T15:28:58.040Z,19.90
2023-05-08T15:31:25.068Z,19.90
2023-05-08T15:33:51.848Z,19.80
2023-05-08T15:36:19.080Z,19.80
2023-05-08T15:38:46.358Z,19.90
2023-05-08T15:41:15.391Z,19.90
2023-05-08T15:43:45.482Z,19.90
2023-05-08T15:46:12.420Z,20.00
2023-05-08T15:48:39.898Z,20.00
2023-05-08T15:51:07.007Z,20.00
2023-05-08T15:53:36.741Z,20.10
2023-05-08T15:56:06.644Z,20.10
2023-05-08T15:58:34.875Z,20.10
2023-05-08T16:01:02.253Z,20.20
2023-05-08T16:03:29.102Z,20.20
2023-05-08T16:05:55.951Z,20.20
2023-05-08T16:08:23.217Z,20.20
2023-05-08T16:10:50.430Z,20.20
2023-05-08T16:13:17.872Z,20.10
2023-05-08T16:15:44.909Z,20.20
2023-05-08T16:18:11.933Z,20.20
2023-05-08T16:20:40.766Z,20.20
2023-05-08T16:23:08.562Z,20.10
2023-05-08T16:25:35.395Z,20.00
2023-05-08T16:28:02.122Z,20.00
2023-05-08T16:30:29.119Z,19.90
2023-05-08T16:32:56.270Z,19.80
2023-05-08T16:35:23.640Z,19.80
2023-05-08T16:37:51.096Z,19.70
2023-05-08T16:40:17.898Z,19.60
2023-05-08T16:42:45.035Z,19.40
2023-05-08T16:45:12.282Z,19.30
2023-05-08T16:47:39.510Z,19.20
2023-05-08T16:50:06.748Z,19.10
2023-05-08T16:52:33.678Z,19.00
2023-05-08T16:55:01.166Z,18.90
2023-05-08T16:57:28.280Z,18.80
2023-05-08T16:59:55.358Z,18.80
2023-05-08T17:02:22.630Z,18.80
2023-05-08T17:04:49.904Z,18.90
2023-05-08T17:07:17.043Z,18.80
2023-05-08T17:09:44.101Z,18.80
2023-05-08T17:12:10.893Z,18.80
2023-05-08T17:14:39.860Z,18.70
2023-05-08T17:17:07.679Z,18.70
2023-05-08T17:19:34.774Z,18.60
2023-05-08T17:22:01.905Z,18.60
2023-05-08T17:24:32.581Z,18.50
2023-05-08T17:26:59.935Z,18.40
2023-05-08T17:29:27.631Z,18.40
2023-05-08T17:31:54.596Z,18.30
2023-05-08T17:34:22.756Z,18.20
2023-05-08T17:36:49.954Z,18.20
2023-05-08T17:39:20.037Z,18.20
2023-05-08T17:41:51.840Z,18.10
2023-05-08T17:44:18.911Z,18.00
2023-05-08T17:46:46.051Z,18.00
2023-05-08T17:49:15.411Z,18.00
2023-05-08T17:51:43.353Z,18.00
2023-05-08T17:54:10.322Z,18.00
2023-05-08T17:56:37.333Z,17.90
2023-05-08T17:59:04.210Z,17.90
2023-05-08T18:01:31.253Z,17.90
2023-05-08T18:03:58.476Z,17.80
2023-05-08T18:06:25.220Z,17.80
2023-05-08T18:08:52.263Z,17.70
2023-05-08T18:11:23.563Z,17.70
2023-05-08T18:13:50.530Z,17.60
2023-05-08T18:16:18.311Z,17.60
2023-05-08T18:18:45.578Z,17.50
2023-05-08T18:21:13.838Z,17.50
2023-05-08T18:23:41.212Z,17.40
2023-05-08T18:26:08.376Z,17.30
2023-05-08T18:28:36.307Z,17.30
2023-05-08T18:31:03.640Z,17.20
2023-05-08T18:33:30.435Z,17.20
2023-05-08T18:35:57.318Z,17.20
2023-05-08T18:38:24.340Z,17.20
2023-05-08T18:40:51.123Z,17.10
2023-05-08T18:43:18.835Z,17.00
2023-05-08T18:45:45.995Z,17.00
2023-05-08T18:48:13.013Z,17.00
2023-05-08T18:50:40.380Z,16.90
2023-05-08T18:53:07.439Z,16.90
2023-05-08T18:55:34.135Z,16.80
2023-05-08T18:58:01.608Z,16.80
2023-05-08T19:00:29.216Z,16.80
2023-05-08T19:02:56.390Z,16.80
2023-05-08T19:05:24.202Z,16.70
2023-05-08T19:07:51.183Z,16.60
2023-05-08T19:10:18.505Z,16.60
2023-05-08T19:12:45.541Z,16.50
2023-05-08T19:15:14.242Z,16.50
2023-05-08T19:17:41.840Z,16.50
2023-05-08T19:20:09.256Z,16.50
2023-05-08T19:22:36.305Z,16.40
2023-05-08T19:25:03.910Z,16.40
2023-05-08T19:27:32.226Z,16.40
2023-05-08T19:29:59.416Z,16.30
2023-05-08T19:32:26.429Z,16.30
2023-05-08T19:34:55.508Z,16.30
2023-05-08T19:37:22.444Z,16.30
2023-05-08T19:39:49.230Z,16.30
2023-05-08T19:42:15.977Z,16.30
2023-05-08T19:44:43.071Z,16.30
2023-05-08T19:47:10.830Z,16.20
2023-05-08T19:49:37.721Z,16.30
2023-05-08T19:52:05.367Z,16.20
2023-05-08T19:54:32.122Z,16.20
2023-05-08T19:56:59.048Z,16.20
2023-05-08T19:59:26.152Z,16.20
2023-05-08T20:01:53.675Z,16.10
2023-05-08T20:04:20.926Z,16.10
2023-05-08T20:06:47.970Z,16.00
2023-05-08T20:09:14.753Z,16.00
2023-05-08T20:11:41.522Z,16.00
2023-05-08T20:14:08.756Z,16.00
2023-05-08T20:16:36.051Z,16.00
2023-05-08T20:19:03.268Z,15.90
2023-05-08T20:21:32.335Z,15.90
2023-05-08T20:24:00.771Z,15.80
2023-05-08T20:26:28.452Z,15.80
2023-05-08T20:28:56.853Z,15.80
2023-05-08T20:31:25.891Z,15.80
2023-05-08T20:33:53.666Z,15.80
2023-05-08T20:36:21.029Z,15.70
2023-05-08T20:38:47.945Z,15.70
2023-05-08T20:41:15.320Z,15.60
2023-05-08T20:43:42.624Z,15.50
2023-05-08T20:46:10.282Z,15.40
2023-05-08T20:48:38.349Z,15.40
2023-05-08T20:51:05.153Z,15.30
2023-05-08T20:53:32.889Z,15.30
2023-05-08T20:56:04.403Z,15.20
2023-05-08T20:58:32.260Z,15.20
2023-05-08T21:00:59.655Z,15.20
2023-05-08T21:03:27.146Z,15.20
2023-05-08T21:05:54.968Z,15.10
2023-05-08T21:08:23.408Z,15.10
2023-05-08T21:10:50.693Z,15.20
2023-05-08T21:13:17.952Z,15.10
2023-05-08T21:15:45.446Z,15.10
2023-05-08T21:18:12.709Z,15.10
2023-05-08T21:20:40.074Z,15.10
2023-05-08T21:23:06.825Z,15.10
2023-05-08T21:25:33.694Z,15.10
2023-05-08T21:28:01.126Z,15.10
2023-05-08T21:30:28.484Z,15.10
2023-05-08T21:32:55.735Z,15.10
2023-05-08T21:35:23.386Z,15.00
2023-05-08T21:37:53.844Z,15.00
2023-05-08T21:40:21.795Z,15.00
2023-05-08T21:42:48.601Z,14.90
2023-05-08T21:45:15.573Z,14.90
2023-05-08T21:47:43.138Z,14.90
2023-05-08T21:50:10.724Z,14.90
2023-05-08T21:52:38.833Z,14.90
2023-05-08T21:55:08.570Z,14.90
2023-05-08T21:57:36.162Z,14.80
2023-05-08T22:00:04.089Z,14.90
2023-05-08T22:02:31.063Z,14.80
2023-05-08T22:04:58.521Z,14.80
2023-05-08T22:07:25.835Z,14.80
2023-05-08T22:09:53.018Z,14.80
2023-05-08T22:12:19.826Z,14.80
2023-05-08T22:14:46.767Z,14.80
2023-05-08T22:17:13.834Z,14.80
2023-05-08T22:19:42.356Z,14.80
2023-05-08T22:22:09.706Z,14.70
2023-05-08T22:24:36.454Z,14.80
2023-05-08T22:27:03.617Z,14.80
2023-05-08T22:29:30.361Z,14.70
2023-05-08T22:31:57.428Z,14.70
2023-05-08T22:34:24.961Z,14.80
2023-05-08T22:36:51.748Z,14.80
2023-05-08T22:39:19.032Z,14.70
2023-05-08T22:41:45.844Z,14.80
2023-05-08T22:44:13.326Z,14.80
2023-05-08T22:46:40.124Z,14.70
2023-05-08T22:49:07.913Z,14.70
2023-05-08T22:51:36.274Z,14.70
2023-05-08T22:54:03.074Z,14.70
2023-05-08T22:56:30.577Z,14.80
2023-05-08T22:58:58.027Z,14.80
2023-05-08T23:01:25.523Z,14.80
2023-05-08T23:03:54.164Z,14.80
2023-05-08T23:06:20.940Z,14.80
2023-05-08T23:08:48.494Z,14.80
2023-05-08T23:11:15.488Z,14.70
2023-05-08T23:13:42.482Z,14.70
2023-05-08T23:16:09.569Z,14.70
2023-05-08T23:18:36.695Z,14.70
2023-05-08T23:21:07.652Z,14.70
2023-05-08T23:23:35.211Z,14.60
2023-05-08T23:26:04.984Z,14.60
2023-05-08T23:28:33.863Z,14.60
2023-05-08T23:31:01.445Z,14.70
2023-05-08T23:33:28.737Z,14.70
2023-05-08T23:35:56.534Z,14.70
2023-05-08T23:38:24.823Z,14.60
2023-05-08T23:40:52.341Z,14.50
2023-05-08T23:43:19.329Z,14.40
2023-05-08T23:45:46.690Z,14.30
2023-05-08T23:48:14.108Z,14.30
2023-05-08T23:50:41.695Z,14.30
2023-05-08T23:53:08.583Z,14.20
2023-05-08T23:55:36.793Z,14.20
2023-05-08T23:58:04.443Z,14.20
